Historyczne dane pomiarowe

Dodano dane terminowe – wersja testowa.

Dane z okresu 1951-2019

Wersja bazy: 1.34 [2019-03-16, lista zmian], aktualizacja planowana na 2019-04-15

Dane meteo z obszaru Polski uzyskane na podstawie danych udostępnionych przez Instytut Meteorologii i Gospodarki Wodnej – Państwowy Instytut Badawczy.

 

Wybierz Datę:    

       

TemperaturaWilgotnośćWiatrCiśnienieOpadyŚniegCzas trwania zjawisk
 Stacja t tx tn tng RH VA  wxwx mslp ppp RRR   cm mm wxwxwxwxwxwxwx
1994-08-14 13.1 17.8 9.7- 66.5- 4.3 1.7---- 0.0------------
1994-08-13 15.8 20.3 11.6- 72.0- 4.7 2.3---- 0.0------------
1994-08-12 13.7 19.1 9.1- 92.0- 7.7 1.0---- 4.6------------
1994-08-11 16.5 23.8 10.2- 88.0- 7.0 1.0---- 0.7------------
1994-08-10 16.2 26.4 4.7- 73.8- 1.7 0.3---- 0.0------------
1994-08-09 17.1 20.3 13.2- 86.3- 7.3 1.7---- 0.8------------
1994-08-08 18.7 28.4 9.5- 80.5- 6.0 0.7---- 0.0------------
1994-08-07 18.1 26.9 12.1- 83.8- 7.7 1.0---- 0.0------------
1994-08-06 18.1 28.3 8.7- 76.0- 5.0 0.3---- 0.7------------
1994-08-05 18.5 26.9 8.3- 74.8- 1.7 1.0---- 0.0------------
1994-08-04 17.8 24.8 10.1- 85.5- 5.7 1.0---- 0.0------------
1994-08-03 18.6 25.9 10.1- 82.5- 6.7 1.0---- 1.8------------
1994-08-02 18.3 28.4 8.7- 68.3- 7.3 0.3---- 0.0------------
1994-08-01 20.7 30.5 9.7- 74.0- 4.0 0.3---- 1.4------------
1994-07-31 20.4 30.6 8.7- 61.8- 2.3 1.0---- 0.0------------
1994-07-30 20.4 29.7 7.7- 59.0- 1.7 0.7---- 0.0------------
1994-07-29 18.6 28.9 6.0- 67.3- 1.0 0.7---- 0.0------------
1994-07-28 19.1 28.1 8.2- 59.3- 3.7 1.0---- 0.0------------
1994-07-27 18.7 28.1 7.9- 60.8- 1.3 1.0---- 0.0------------
1994-07-26 19.3 28.1 8.8- 63.8- 2.7 0.3---- 0.0------------
1994-07-25 18.3 27.4 7.2- 63.3- 4.0 0.7---- 0.0------------
1994-07-24 17.6 25.5 7.6- 68.3- 3.3 0.3---- 0.0------------
1994-07-23 16.1 24.3 4.2- 65.5- 1.7 0.7---- 0.0------------
1994-07-22 15.4 23.8 3.9- 68.0- 0.7 0.7---- 0.0------------
1994-07-21 14.3 23.3 2.9- 68.0- 0.7 1.3---- 0.0------------
1994-07-20 15.6 20.2 7.7- 64.8- 3.0 1.3---- 0.0------------
1994-07-19 18.4 22.3 13.1- 69.3- 6.7 1.3---- 0.0------------
1994-07-18 18.7 23.8 13.6- 75.5- 4.0 0.7---- 0.0------------
1994-07-17 16.8 24.2 8.6- 83.5- 5.7 0.7---- 5.2------------
1994-07-16 14.6 24.4 7.7- 96.0- 5.3 0.0---- 1.2------------
1994-07-15 14.9 22.3 6.5- 94.5- 3.7 0.0---- 30.0------------
1994-07-14 16.6 24.0 7.7- 76.3- 5.7 1.0---- 3.4------------
1994-07-13 17.5 23.3 6.0- 63.8- 3.0 2.0---- 0.0------------
1994-07-12 16.7 21.3 10.6- 78.0- 4.3 1.7---- 0.0------------
1994-07-11 15.5 19.9 7.9- 78.3- 7.0 1.0---- 0.9------------
1994-07-10 11.6 13.9 9.2- 98.5- 8.0 0.7---- 7.4------------
1994-07-09 10.9 17.8 4.7- 86.0- 7.3 1.0---- 13.0------------
1994-07-08 14.3 19.4 8.9- 65.0- 6.7 1.7---- 0.0------------
1994-07-07 13.4 22.0 5.7- 87.3- 6.7 0.0---- 7.7------------
1994-07-06 17.8 22.0 8.7- 64.5- 3.7 1.0---- 0.0------------
1994-07-05 17.5 23.4 7.7- 64.5- 7.3 0.3---- 0.2------------
1994-07-04 16.2 25.3 3.4- 65.3- 0.3 0.3---- 0.0------------
1994-07-03 14.6 22.3 3.4- 69.5- 0.3 0.7---- 0.0------------
1994-07-02 15.9 20.3 12.8- 77.5- 5.3 0.3---- 0.0------------
1994-07-01 15.6 20.3 12.8- 70.0- 5.7 0.3---- 0.0------------
1994-06-30 19.0 24.8 12.3- 81.3- 5.7 0.3---- 5.5------------
1994-06-29 19.9 27.9 9.2- 77.0- 3.3 1.0---- 0.0------------
1994-06-28 20.9 27.8 11.3- 76.5- 3.3 1.0---- 0.0------------
1994-06-27 20.1 29.1 8.6- 70.3- 4.3 0.3---- 0.0------------
1994-06-26 17.0 26.4 1.5- 62.8- 1.0 1.3---- 0.0------------
1994-06-25 12.9 22.8 -2.1- 53.8- 0.0 1.3---- 0.0------------
1994-06-24 11.6 18.7 1.8- 58.0- 0.0 1.7---- 0.0------------
1994-06-23 15.4 20.7 10.8- 70.5- 5.7 1.7---- 0.0------------
1994-06-22 14.6 24.4 2.4- 68.8- 4.3 1.3---- 0.7------------
1994-06-21 14.3 18.6 5.3- 62.3- 1.0 1.7---- 0.0------------
1994-06-20 17.0 20.3 15.3- 71.3- 5.0 1.7---- 0.0------------
1994-06-19 14.8 22.8 7.9- 71.5- 5.0 2.0---- 0.2------------
1994-06-18 10.7 17.3 -0.5- 65.3- 5.3 3.7---- 5.5------------
1994-06-17 9.1 12.1 5.2- 77.3- 7.3 1.7---- 2.4------------
1994-06-16 9.7 14.8 0.0- 67.0- 6.3 3.3---- 4.2------------
242.6 ms

 

Źródłem pochodzenia danych jest Instytut Meteorologii i Gospodarki Wodnej – Państwowy Instytut Badawczy. Dane Instytutu Meteorologii i Gospodarki Wodnej – Państwowego Instytutu Badawczego zostały przetworzone.

Dane źródłowe można odnaleźć na stronie https://dane.imgw.pl